sensor_id;sensor_type;location;lat;lon;timestamp;P1;durP1;ratioP1;P2;durP2;ratioP2
79204;SDS011;68632;47.512;19.104;2024-02-26T00:00:15;33.42;;;19.70;;
79204;SDS011;68632;47.512;19.104;2024-02-26T00:01:18;29.13;;;17.67;;
79204;SDS011;68632;47.512;19.104;2024-02-26T00:02:20;31.98;;;17.70;;
79204;SDS011;68632;47.512;19.104;2024-02-26T00:03:22;31.17;;;18.92;;
79204;SDS011;68632;47.512;19.104;2024-02-26T00:04:24;31.95;;;19.67;;
79204;SDS011;68632;47.512;19.104;2024-02-26T00:05:27;30.50;;;18.55;;
79204;SDS011;68632;47.512;19.104;2024-02-26T00:06:29;29.92;;;17.85;;
79204;SDS011;68632;47.512;19.104;2024-02-26T00:07:32;32.88;;;19.63;;
79204;SDS011;68632;47.512;19.104;2024-02-26T00:08:34;31.27;;;17.98;;
79204;SDS011;68632;47.512;19.104;2024-02-26T00:09:37;31.05;;;19.20;;
79204;SDS011;68632;47.512;19.104;2024-02-26T00:10:39;33.17;;;17.02;;
79204;SDS011;68632;47.512;19.104;2024-02-26T00:11:41;31.02;;;18.58;;
79204;SDS011;68632;47.512;19.104;2024-02-26T00:12:43;31.23;;;19.10;;
79204;SDS011;68632;47.512;19.104;2024-02-26T00:13:46;29.08;;;17.55;;
79204;SDS011;68632;47.512;19.104;2024-02-26T00:14:48;32.95;;;18.52;;
79204;SDS011;68632;47.512;19.104;2024-02-26T00:15:51;30.92;;;18.35;;
79204;SDS011;68632;47.512;19.104;2024-02-26T00:16:54;30.77;;;17.85;;
79204;SDS011;68632;47.512;19.104;2024-02-26T00:17:56;30.25;;;18.30;;
79204;SDS011;68632;47.512;19.104;2024-02-26T00:18:58;32.97;;;17.20;;
79204;SDS011;68632;47.512;19.104;2024-02-26T00:20:02;32.92;;;17.23;;
79204;SDS011;68632;47.512;19.104;2024-02-26T00:21:06;33.05;;;17.83;;
79204;SDS011;68632;47.512;19.104;2024-02-26T00:22:08;29.65;;;17.55;;
79204;SDS011;68632;47.512;19.104;2024-02-26T00:23:11;29.00;;;16.98;;
79204;SDS011;68632;47.512;19.104;2024-02-26T00:24:13;27.45;;;16.38;;
79204;SDS011;68632;47.512;19.104;2024-02-26T00:25:15;29.88;;;17.25;;
79204;SDS011;68632;47.512;19.104;2024-02-26T00:26:18;28.25;;;17.13;;
79204;SDS011;68632;47.512;19.104;2024-02-26T00:27:20;29.48;;;17.55;;
79204;SDS011;68632;47.512;19.104;2024-02-26T00:28:22;32.97;;;16.80;;
79204;SDS011;68632;47.512;19.104;2024-02-26T00:29:26;32.67;;;16.50;;
79204;SDS011;68632;47.512;19.104;2024-02-26T00:30:28;32.05;;;17.40;;
79204;SDS011;68632;47.512;19.104;2024-02-26T00:31:31;31.83;;;17.95;;
79204;SDS011;68632;47.512;19.104;2024-02-26T00:32:33;28.67;;;17.45;;
79204;SDS011;68632;47.512;19.104;2024-02-26T00:33:35;31.60;;;18.02;;
79204;SDS011;68632;47.512;19.104;2024-02-26T00:34:38;31.08;;;17.13;;
79204;SDS011;68632;47.512;19.104;2024-02-26T00:35:40;32.03;;;17.98;;
79204;SDS011;68632;47.512;19.104;2024-02-26T00:36:43;28.55;;;16.88;;
79204;SDS011;68632;47.512;19.104;2024-02-26T00:37:45;31.80;;;18.63;;
79204;SDS011;68632;47.512;19.104;2024-02-26T00:38:47;32.50;;;18.00;;
79204;SDS011;68632;47.512;19.104;2024-02-26T00:39:53;28.98;;;17.60;;
79204;SDS011;68632;47.512;19.104;2024-02-26T00:40:56;30.20;;;17.45;;
79204;SDS011;68632;47.512;19.104;2024-02-26T00:41:58;30.58;;;17.20;;
79204;SDS011;68632;47.512;19.104;2024-02-26T00:43:00;30.55;;;16.48;;
79204;SDS011;68632;47.512;19.104;2024-02-26T00:44:02;30.75;;;16.38;;
79204;SDS011;68632;47.512;19.104;2024-02-26T00:45:05;29.35;;;16.42;;
79204;SDS011;68632;47.512;19.104;2024-02-26T00:46:08;28.23;;;16.30;;
79204;SDS011;68632;47.512;19.104;2024-02-26T00:47:11;29.02;;;16.08;;
79204;SDS011;68632;47.512;19.104;2024-02-26T00:48:14;23.88;;;14.45;;
79204;SDS011;68632;47.512;19.104;2024-02-26T00:49:16;26.35;;;14.20;;
79204;SDS011;68632;47.512;19.104;2024-02-26T00:50:18;29.33;;;16.45;;
79204;SDS011;68632;47.512;19.104;2024-02-26T00:51:21;30.25;;;17.05;;
79204;SDS011;68632;47.512;19.104;2024-02-26T00:52:26;30.75;;;16.45;;
79204;SDS011;68632;47.512;19.104;2024-02-26T00:53:28;32.22;;;17.40;;
79204;SDS011;68632;47.512;19.104;2024-02-26T00:54:31;27.17;;;15.80;;
79204;SDS011;68632;47.512;19.104;2024-02-26T00:55:33;29.10;;;16.30;;
79204;SDS011;68632;47.512;19.104;2024-02-26T00:56:35;29.45;;;16.13;;
79204;SDS011;68632;47.512;19.104;2024-02-26T00:57:37;29.02;;;16.40;;
79204;SDS011;68632;47.512;19.104;2024-02-26T00:58:40;27.42;;;16.48;;
79204;SDS011;68632;47.512;19.104;2024-02-26T00:59:42;31.20;;;16.25;;
79204;SDS011;68632;47.512;19.104;2024-02-26T01:00:44;26.02;;;15.77;;
79204;SDS011;68632;47.512;19.104;2024-02-26T01:01:47;24.98;;;16.25;;
79204;SDS011;68632;47.512;19.104;2024-02-26T01:02:49;27.15;;;15.23;;
79204;SDS011;68632;47.512;19.104;2024-02-26T01:03:51;31.45;;;16.23;;
79204;SDS011;68632;47.512;19.104;2024-02-26T01:04:54;29.63;;;15.77;;
79204;SDS011;68632;47.512;19.104;2024-02-26T01:05:56;25.55;;;16.48;;
79204;SDS011;68632;47.512;19.104;2024-02-26T01:07:00;26.40;;;14.75;;
79204;SDS011;68632;47.512;19.104;2024-02-26T01:08:03;27.05;;;13.63;;
79204;SDS011;68632;47.512;19.104;2024-02-26T01:09:06;22.10;;;13.20;;
79204;SDS011;68632;47.512;19.104;2024-02-26T01:10:08;24.25;;;14.45;;
79204;SDS011;68632;47.512;19.104;2024-02-26T01:11:11;27.80;;;15.30;;
79204;SDS011;68632;47.512;19.104;2024-02-26T01:12:14;26.90;;;13.75;;
79204;SDS011;68632;47.512;19.104;2024-02-26T01:13:16;22.92;;;14.02;;
79204;SDS011;68632;47.512;19.104;2024-02-26T01:14:18;25.50;;;14.27;;
79204;SDS011;68632;47.512;19.104;2024-02-26T01:15:21;25.27;;;15.13;;
79204;SDS011;68632;47.512;19.104;2024-02-26T01:16:25;24.95;;;14.32;;
79204;SDS011;68632;47.512;19.104;2024-02-26T01:17:46;26.33;;;14.77;;
79204;SDS011;68632;47.512;19.104;2024-02-26T01:18:48;27.10;;;15.13;;
79204;SDS011;68632;47.512;19.104;2024-02-26T01:19:51;30.67;;;14.95;;
79204;SDS011;68632;47.512;19.104;2024-02-26T01:20:55;22.05;;;14.40;;
79204;SDS011;68632;47.512;19.104;2024-02-26T01:21:57;23.65;;;13.98;;
79204;SDS011;68632;47.512;19.104;2024-02-26T01:22:59;26.10;;;15.57;;
79204;SDS011;68632;47.512;19.104;2024-02-26T01:24:02;24.65;;;13.95;;
79204;SDS011;68632;47.512;19.104;2024-02-26T01:25:04;23.98;;;13.82;;
79204;SDS011;68632;47.512;19.104;2024-02-26T01:26:07;23.52;;;13.50;;
79204;SDS011;68632;47.512;19.104;2024-02-26T01:27:09;25.00;;;15.10;;
79204;SDS011;68632;47.512;19.104;2024-02-26T01:28:11;27.10;;;16.90;;
79204;SDS011;68632;47.512;19.104;2024-02-26T01:29:13;29.27;;;16.98;;
79204;SDS011;68632;47.512;19.104;2024-02-26T01:30:16;27.95;;;17.10;;
79204;SDS011;68632;47.512;19.104;2024-02-26T01:31:19;27.50;;;16.23;;
79204;SDS011;68632;47.512;19.104;2024-02-26T01:32:21;29.55;;;17.98;;
79204;SDS011;68632;47.512;19.104;2024-02-26T01:33:25;31.83;;;17.58;;
79204;SDS011;68632;47.512;19.104;2024-02-26T01:34:28;27.73;;;16.23;;
79204;SDS011;68632;47.512;19.104;2024-02-26T01:35:30;25.48;;;15.70;;
79204;SDS011;68632;47.512;19.104;2024-02-26T01:36:32;28.63;;;17.05;;
79204;SDS011;68632;47.512;19.104;2024-02-26T01:37:36;27.25;;;16.13;;
79204;SDS011;68632;47.512;19.104;2024-02-26T01:38:38;29.83;;;17.58;;
79204;SDS011;68632;47.512;19.104;2024-02-26T01:39:41;25.63;;;16.40;;
79204;SDS011;68632;47.512;19.104;2024-02-26T01:40:43;29.55;;;16.63;;
79204;SDS011;68632;47.512;19.104;2024-02-26T01:41:46;28.38;;;16.92;;
79204;SDS011;68632;47.512;19.104;2024-02-26T01:42:48;32.90;;;18.25;;
79204;SDS011;68632;47.512;19.104;2024-02-26T01:43:50;30.95;;;17.17;;
79204;SDS011;68632;47.512;19.104;2024-02-26T01:44:52;31.27;;;18.33;;
79204;SDS011;68632;47.512;19.104;2024-02-26T01:45:55;31.48;;;17.33;;
79204;SDS011;68632;47.512;19.104;2024-02-26T01:46:57;29.40;;;17.65;;
79204;SDS011;68632;47.512;19.104;2024-02-26T01:47:59;27.63;;;17.40;;
79204;SDS011;68632;47.512;19.104;2024-02-26T01:49:02;26.83;;;15.65;;
79204;SDS011;68632;47.512;19.104;2024-02-26T01:50:05;27.83;;;16.42;;
79204;SDS011;68632;47.512;19.104;2024-02-26T01:51:08;27.98;;;18.25;;
79204;SDS011;68632;47.512;19.104;2024-02-26T01:52:10;26.38;;;17.00;;
79204;SDS011;68632;47.512;19.104;2024-02-26T01:53:13;28.45;;;18.30;;
79204;SDS011;68632;47.512;19.104;2024-02-26T01:54:16;28.02;;;16.85;;
79204;SDS011;68632;47.512;19.104;2024-02-26T01:55:18;29.08;;;18.52;;
79204;SDS011;68632;47.512;19.104;2024-02-26T01:56:21;26.23;;;16.58;;
79204;SDS011;68632;47.512;19.104;2024-02-26T01:57:24;26.92;;;15.68;;
79204;SDS011;68632;47.512;19.104;2024-02-26T01:58:26;32.80;;;18.25;;
79204;SDS011;68632;47.512;19.104;2024-02-26T01:59:28;28.80;;;17.27;;
79204;SDS011;68632;47.512;19.104;2024-02-26T02:00:31;25.40;;;15.73;;
79204;SDS011;68632;47.512;19.104;2024-02-26T02:01:34;26.42;;;16.23;;
79204;SDS011;68632;47.512;19.104;2024-02-26T02:02:37;27.98;;;17.48;;
79204;SDS011;68632;47.512;19.104;2024-02-26T02:03:40;28.23;;;17.65;;
79204;SDS011;68632;47.512;19.104;2024-02-26T02:04:43;28.58;;;16.73;;
79204;SDS011;68632;47.512;19.104;2024-02-26T02:05:46;28.90;;;18.05;;
79204;SDS011;68632;47.512;19.104;2024-02-26T02:06:48;27.23;;;16.42;;
79204;SDS011;68632;47.512;19.104;2024-02-26T02:07:51;28.75;;;17.00;;
79204;SDS011;68632;47.512;19.104;2024-02-26T02:08:54;30.73;;;16.65;;
79204;SDS011;68632;47.512;19.104;2024-02-26T02:09:58;26.58;;;16.73;;
79204;SDS011;68632;47.512;19.104;2024-02-26T02:11:00;25.77;;;16.33;;
79204;SDS011;68632;47.512;19.104;2024-02-26T02:12:03;26.73;;;16.15;;
79204;SDS011;68632;47.512;19.104;2024-02-26T02:13:06;30.25;;;18.75;;
79204;SDS011;68632;47.512;19.104;2024-02-26T02:14:08;27.50;;;16.90;;
79204;SDS011;68632;47.512;19.104;2024-02-26T02:15:10;26.73;;;15.73;;
79204;SDS011;68632;47.512;19.104;2024-02-26T02:16:13;24.73;;;15.82;;
79204;SDS011;68632;47.512;19.104;2024-02-26T02:17:15;26.10;;;15.55;;
79204;SDS011;68632;47.512;19.104;2024-02-26T02:18:18;24.08;;;14.82;;
79204;SDS011;68632;47.512;19.104;2024-02-26T02:19:21;27.85;;;16.50;;
79204;SDS011;68632;47.512;19.104;2024-02-26T02:20:31;27.30;;;15.75;;
79204;SDS011;68632;47.512;19.104;2024-02-26T02:21:36;29.05;;;16.83;;
79204;SDS011;68632;47.512;19.104;2024-02-26T02:22:38;24.73;;;15.80;;
79204;SDS011;68632;47.512;19.104;2024-02-26T02:23:41;25.05;;;15.27;;
79204;SDS011;68632;47.512;19.104;2024-02-26T02:24:48;25.90;;;14.30;;
79204;SDS011;68632;47.512;19.104;2024-02-26T02:25:51;24.00;;;15.98;;
79204;SDS011;68632;47.512;19.104;2024-02-26T02:26:54;27.95;;;16.50;;
79204;SDS011;68632;47.512;19.104;2024-02-26T02:27:57;25.40;;;14.68;;
79204;SDS011;68632;47.512;19.104;2024-02-26T02:28:59;25.85;;;14.73;;
79204;SDS011;68632;47.512;19.104;2024-02-26T02:30:02;25.48;;;17.58;;
79204;SDS011;68632;47.512;19.104;2024-02-26T02:31:05;25.33;;;16.00;;
79204;SDS011;68632;47.512;19.104;2024-02-26T02:32:07;21.95;;;15.15;;
79204;SDS011;68632;47.512;19.104;2024-02-26T02:33:10;26.80;;;16.08;;
79204;SDS011;68632;47.512;19.104;2024-02-26T02:34:14;24.83;;;14.88;;
79204;SDS011;68632;47.512;19.104;2024-02-26T02:35:16;26.45;;;15.10;;
79204;SDS011;68632;47.512;19.104;2024-02-26T02:36:19;22.42;;;14.48;;
79204;SDS011;68632;47.512;19.104;2024-02-26T02:37:21;28.67;;;16.55;;
79204;SDS011;68632;47.512;19.104;2024-02-26T02:38:23;26.30;;;15.25;;
79204;SDS011;68632;47.512;19.104;2024-02-26T02:39:27;25.88;;;15.77;;
79204;SDS011;68632;47.512;19.104;2024-02-26T02:40:30;25.38;;;15.20;;
79204;SDS011;68632;47.512;19.104;2024-02-26T02:41:32;24.08;;;15.65;;
79204;SDS011;68632;47.512;19.104;2024-02-26T02:42:34;25.17;;;14.93;;
79204;SDS011;68632;47.512;19.104;2024-02-26T02:43:37;25.65;;;16.30;;
79204;SDS011;68632;47.512;19.104;2024-02-26T02:44:39;24.88;;;15.05;;
79204;SDS011;68632;47.512;19.104;2024-02-26T02:45:41;24.92;;;15.68;;
79204;SDS011;68632;47.512;19.104;2024-02-26T02:46:43;24.90;;;16.48;;
79204;SDS011;68632;47.512;19.104;2024-02-26T02:47:46;24.88;;;15.82;;
79204;SDS011;68632;47.512;19.104;2024-02-26T02:48:48;24.80;;;15.68;;
79204;SDS011;68632;47.512;19.104;2024-02-26T02:49:51;22.88;;;15.55;;
79204;SDS011;68632;47.512;19.104;2024-02-26T02:50:54;25.13;;;14.82;;
79204;SDS011;68632;47.512;19.104;2024-02-26T02:51:56;25.45;;;16.17;;
79204;SDS011;68632;47.512;19.104;2024-02-26T02:52:59;23.17;;;13.80;;
79204;SDS011;68632;47.512;19.104;2024-02-26T02:54:01;23.27;;;14.43;;
79204;SDS011;68632;47.512;19.104;2024-02-26T02:55:04;23.67;;;15.05;;
79204;SDS011;68632;47.512;19.104;2024-02-26T02:56:06;26.13;;;15.15;;
79204;SDS011;68632;47.512;19.104;2024-02-26T02:57:08;24.70;;;14.38;;
79204;SDS011;68632;47.512;19.104;2024-02-26T02:58:11;24.98;;;15.85;;
79204;SDS011;68632;47.512;19.104;2024-02-26T02:59:13;25.00;;;15.20;;
79204;SDS011;68632;47.512;19.104;2024-02-26T03:00:16;23.55;;;14.77;;
79204;SDS011;68632;47.512;19.104;2024-02-26T03:01:19;24.05;;;15.77;;
79204;SDS011;68632;47.512;19.104;2024-02-26T03:02:21;25.05;;;15.05;;
79204;SDS011;68632;47.512;19.104;2024-02-26T03:03:23;24.10;;;16.45;;
79204;SDS011;68632;47.512;19.104;2024-02-26T03:04:27;26.60;;;15.25;;
79204;SDS011;68632;47.512;19.104;2024-02-26T03:05:29;23.10;;;15.48;;
79204;SDS011;68632;47.512;19.104;2024-02-26T03:06:31;25.75;;;15.82;;
79204;SDS011;68632;47.512;19.104;2024-02-26T03:07:34;27.65;;;15.18;;
79204;SDS011;68632;47.512;19.104;2024-02-26T03:08:36;25.63;;;15.80;;
79204;SDS011;68632;47.512;19.104;2024-02-26T03:09:41;24.17;;;15.60;;
79204;SDS011;68632;47.512;19.104;2024-02-26T03:10:43;26.70;;;15.48;;
79204;SDS011;68632;47.512;19.104;2024-02-26T03:11:46;28.73;;;17.50;;
79204;SDS011;68632;47.512;19.104;2024-02-26T03:12:49;23.27;;;14.95;;
79204;SDS011;68632;47.512;19.104;2024-02-26T03:13:51;23.58;;;15.15;;
79204;SDS011;68632;47.512;19.104;2024-02-26T03:14:54;23.90;;;15.13;;
79204;SDS011;68632;47.512;19.104;2024-02-26T03:15:56;22.48;;;14.88;;
79204;SDS011;68632;47.512;19.104;2024-02-26T03:16:59;25.63;;;13.48;;
79204;SDS011;68632;47.512;19.104;2024-02-26T03:18:01;22.95;;;14.50;;
79204;SDS011;68632;47.512;19.104;2024-02-26T03:19:04;20.98;;;13.85;;
79204;SDS011;68632;47.512;19.104;2024-02-26T03:20:06;22.50;;;14.88;;
79204;SDS011;68632;47.512;19.104;2024-02-26T03:21:10;22.13;;;14.55;;
79204;SDS011;68632;47.512;19.104;2024-02-26T03:22:13;23.48;;;14.02;;
79204;SDS011;68632;47.512;19.104;2024-02-26T03:23:15;24.55;;;15.20;;
79204;SDS011;68632;47.512;19.104;2024-02-26T03:24:19;23.75;;;15.02;;
79204;SDS011;68632;47.512;19.104;2024-02-26T03:25:21;24.38;;;14.52;;
79204;SDS011;68632;47.512;19.104;2024-02-26T03:26:23;22.15;;;15.00;;
79204;SDS011;68632;47.512;19.104;2024-02-26T03:27:25;25.75;;;15.45;;
79204;SDS011;68632;47.512;19.104;2024-02-26T03:28:28;24.73;;;16.05;;
79204;SDS011;68632;47.512;19.104;2024-02-26T03:29:30;27.83;;;17.33;;
79204;SDS011;68632;47.512;19.104;2024-02-26T03:30:32;25.80;;;15.38;;
79204;SDS011;68632;47.512;19.104;2024-02-26T03:31:35;22.55;;;14.60;;
79204;SDS011;68632;47.512;19.104;2024-02-26T03:32:37;23.80;;;15.60;;
79204;SDS011;68632;47.512;19.104;2024-02-26T03:33:39;23.98;;;15.20;;
79204;SDS011;68632;47.512;19.104;2024-02-26T03:34:42;27.80;;;17.30;;
79204;SDS011;68632;47.512;19.104;2024-02-26T03:35:44;24.60;;;15.02;;
79204;SDS011;68632;47.512;19.104;2024-02-26T03:36:47;22.65;;;15.57;;
79204;SDS011;68632;47.512;19.104;2024-02-26T03:37:49;24.33;;;15.02;;
79204;SDS011;68632;47.512;19.104;2024-02-26T03:38:53;23.48;;;15.35;;
79204;SDS011;68632;47.512;19.104;2024-02-26T03:39:55;24.45;;;15.15;;
79204;SDS011;68632;47.512;19.104;2024-02-26T03:40:59;24.17;;;14.45;;
79204;SDS011;68632;47.512;19.104;2024-02-26T03:42:02;24.17;;;14.85;;
79204;SDS011;68632;47.512;19.104;2024-02-26T03:43:05;22.65;;;14.70;;
79204;SDS011;68632;47.512;19.104;2024-02-26T03:44:09;25.00;;;15.57;;
79204;SDS011;68632;47.512;19.104;2024-02-26T03:45:11;23.42;;;14.23;;
79204;SDS011;68632;47.512;19.104;2024-02-26T03:46:14;23.75;;;15.10;;
79204;SDS011;68632;47.512;19.104;2024-02-26T03:47:16;24.13;;;15.45;;
79204;SDS011;68632;47.512;19.104;2024-02-26T03:48:18;24.52;;;14.85;;
79204;SDS011;68632;47.512;19.104;2024-02-26T03:49:21;23.65;;;14.73;;
79204;SDS011;68632;47.512;19.104;2024-02-26T03:50:24;23.58;;;14.63;;
79204;SDS011;68632;47.512;19.104;2024-02-26T03:51:26;23.35;;;13.85;;
79204;SDS011;68632;47.512;19.104;2024-02-26T03:52:33;25.90;;;15.50;;
79204;SDS011;68632;47.512;19.104;2024-02-26T03:53:36;23.35;;;13.82;;
79204;SDS011;68632;47.512;19.104;2024-02-26T03:54:38;25.17;;;14.55;;
79204;SDS011;68632;47.512;19.104;2024-02-26T03:55:40;21.17;;;13.30;;
79204;SDS011;68632;47.512;19.104;2024-02-26T03:56:44;22.00;;;14.93;;
79204;SDS011;68632;47.512;19.104;2024-02-26T03:57:46;22.70;;;13.75;;
79204;SDS011;68632;47.512;19.104;2024-02-26T03:58:48;27.45;;;17.30;;
79204;SDS011;68632;47.512;19.104;2024-02-26T03:59:51;25.60;;;15.60;;
79204;SDS011;68632;47.512;19.104;2024-02-26T04:00:53;24.58;;;16.25;;
79204;SDS011;68632;47.512;19.104;2024-02-26T04:01:55;26.25;;;15.73;;
79204;SDS011;68632;47.512;19.104;2024-02-26T04:02:58;24.85;;;16.33;;
79204;SDS011;68632;47.512;19.104;2024-02-26T04:04:00;28.67;;;17.88;;
79204;SDS011;68632;47.512;19.104;2024-02-26T04:05:02;21.75;;;15.57;;
79204;SDS011;68632;47.512;19.104;2024-02-26T04:06:08;25.55;;;16.23;;
79204;SDS011;68632;47.512;19.104;2024-02-26T04:07:12;28.70;;;19.25;;
79204;SDS011;68632;47.512;19.104;2024-02-26T04:08:15;26.65;;;17.13;;
79204;SDS011;68632;47.512;19.104;2024-02-26T04:09:17;30.63;;;18.52;;
79204;SDS011;68632;47.512;19.104;2024-02-26T04:10:20;29.95;;;17.95;;
79204;SDS011;68632;47.512;19.104;2024-02-26T04:11:22;30.33;;;18.63;;
79204;SDS011;68632;47.512;19.104;2024-02-26T04:12:24;30.35;;;18.42;;
79204;SDS011;68632;47.512;19.104;2024-02-26T04:13:27;29.52;;;18.52;;
79204;SDS011;68632;47.512;19.104;2024-02-26T04:14:29;29.92;;;17.88;;
79204;SDS011;68632;47.512;19.104;2024-02-26T04:15:31;30.63;;;18.13;;
79204;SDS011;68632;47.512;19.104;2024-02-26T04:16:34;29.08;;;17.95;;
79204;SDS011;68632;47.512;19.104;2024-02-26T04:17:40;28.88;;;18.67;;
79204;SDS011;68632;47.512;19.104;2024-02-26T04:18:43;27.40;;;16.67;;
79204;SDS011;68632;47.512;19.104;2024-02-26T04:19:45;28.27;;;18.30;;
79204;SDS011;68632;47.512;19.104;2024-02-26T04:20:47;27.45;;;17.50;;
79204;SDS011;68632;47.512;19.104;2024-02-26T04:21:50;28.50;;;17.70;;
79204;SDS011;68632;47.512;19.104;2024-02-26T04:22:52;31.60;;;19.17;;
79204;SDS011;68632;47.512;19.104;2024-02-26T04:23:54;30.85;;;18.10;;
79204;SDS011;68632;47.512;19.104;2024-02-26T04:24:57;31.58;;;18.33;;
79204;SDS011;68632;47.512;19.104;2024-02-26T04:25:59;30.65;;;18.08;;
79204;SDS011;68632;47.512;19.104;2024-02-26T04:27:02;28.17;;;17.65;;
79204;SDS011;68632;47.512;19.104;2024-02-26T04:28:05;27.83;;;16.27;;
79204;SDS011;68632;47.512;19.104;2024-02-26T04:29:07;30.63;;;18.05;;
79204;SDS011;68632;47.512;19.104;2024-02-26T04:30:09;25.27;;;17.40;;
79204;SDS011;68632;47.512;19.104;2024-02-26T04:31:12;25.80;;;16.45;;
79204;SDS011;68632;47.512;19.104;2024-02-26T04:32:15;27.63;;;17.52;;
79204;SDS011;68632;47.512;19.104;2024-02-26T04:33:17;26.58;;;16.42;;
79204;SDS011;68632;47.512;19.104;2024-02-26T04:34:20;25.90;;;16.70;;
79204;SDS011;68632;47.512;19.104;2024-02-26T04:35:22;25.65;;;16.83;;
79204;SDS011;68632;47.512;19.104;2024-02-26T04:36:24;27.77;;;17.02;;
79204;SDS011;68632;47.512;19.104;2024-02-26T04:37:27;28.88;;;16.15;;
79204;SDS011;68632;47.512;19.104;2024-02-26T04:38:33;25.27;;;16.17;;
79204;SDS011;68632;47.512;19.104;2024-02-26T04:39:35;26.35;;;15.82;;
79204;SDS011;68632;47.512;19.104;2024-02-26T04:40:38;26.63;;;15.85;;
79204;SDS011;68632;47.512;19.104;2024-02-26T04:41:40;27.13;;;16.55;;
79204;SDS011;68632;47.512;19.104;2024-02-26T04:42:42;28.15;;;15.35;;
79204;SDS011;68632;47.512;19.104;2024-02-26T04:43:45;24.85;;;14.57;;
79204;SDS011;68632;47.512;19.104;2024-02-26T04:44:47;27.23;;;16.27;;
79204;SDS011;68632;47.512;19.104;2024-02-26T04:45:49;23.50;;;14.75;;
79204;SDS011;68632;47.512;19.104;2024-02-26T04:46:51;25.60;;;15.75;;
79204;SDS011;68632;47.512;19.104;2024-02-26T04:47:54;24.42;;;15.93;;
79204;SDS011;68632;47.512;19.104;2024-02-26T04:48:57;27.02;;;15.23;;
79204;SDS011;68632;47.512;19.104;2024-02-26T04:50:00;26.95;;;15.88;;
79204;SDS011;68632;47.512;19.104;2024-02-26T04:51:03;26.80;;;16.85;;
79204;SDS011;68632;47.512;19.104;2024-02-26T04:52:05;24.38;;;14.82;;
79204;SDS011;68632;47.512;19.104;2024-02-26T04:53:07;25.10;;;16.60;;
79204;SDS011;68632;47.512;19.104;2024-02-26T04:54:10;25.70;;;15.60;;
79204;SDS011;68632;47.512;19.104;2024-02-26T04:55:12;27.88;;;17.30;;
79204;SDS011;68632;47.512;19.104;2024-02-26T04:56:15;26.98;;;16.55;;
79204;SDS011;68632;47.512;19.104;2024-02-26T04:57:17;26.45;;;16.25;;
79204;SDS011;68632;47.512;19.104;2024-02-26T04:58:22;25.58;;;15.52;;
79204;SDS011;68632;47.512;19.104;2024-02-26T04:59:24;25.15;;;15.93;;
79204;SDS011;68632;47.512;19.104;2024-02-26T05:00:27;25.98;;;15.90;;
79204;SDS011;68632;47.512;19.104;2024-02-26T05:01:29;23.73;;;15.18;;
79204;SDS011;68632;47.512;19.104;2024-02-26T05:02:31;25.48;;;15.13;;
79204;SDS011;68632;47.512;19.104;2024-02-26T05:03:35;25.55;;;15.40;;
79204;SDS011;68632;47.512;19.104;2024-02-26T05:04:38;23.52;;;14.95;;
79204;SDS011;68632;47.512;19.104;2024-02-26T05:05:40;23.42;;;14.50;;
79204;SDS011;68632;47.512;19.104;2024-02-26T05:06:43;24.60;;;15.48;;
79204;SDS011;68632;47.512;19.104;2024-02-26T05:07:45;23.67;;;14.80;;
79204;SDS011;68632;47.512;19.104;2024-02-26T05:08:47;23.63;;;15.43;;
79204;SDS011;68632;47.512;19.104;2024-02-26T05:09:50;25.60;;;15.88;;
79204;SDS011;68632;47.512;19.104;2024-02-26T05:10:52;25.25;;;15.05;;
79204;SDS011;68632;47.512;19.104;2024-02-26T05:11:54;28.63;;;16.52;;
79204;SDS011;68632;47.512;19.104;2024-02-26T05:12:57;23.48;;;14.18;;
79204;SDS011;68632;47.512;19.104;2024-02-26T05:13:59;28.23;;;15.90;;
79204;SDS011;68632;47.512;19.104;2024-02-26T05:15:02;28.42;;;15.35;;
79204;SDS011;68632;47.512;19.104;2024-02-26T05:16:05;27.55;;;15.55;;
79204;SDS011;68632;47.512;19.104;2024-02-26T05:17:08;26.85;;;16.45;;
79204;SDS011;68632;47.512;19.104;2024-02-26T05:18:10;27.17;;;15.73;;
79204;SDS011;68632;47.512;19.104;2024-02-26T05:19:13;25.92;;;15.40;;
79204;SDS011;68632;47.512;19.104;2024-02-26T05:20:15;30.15;;;18.20;;
79204;SDS011;68632;47.512;19.104;2024-02-26T05:21:17;29.15;;;16.23;;
79204;SDS011;68632;47.512;19.104;2024-02-26T05:22:20;31.42;;;17.17;;
79204;SDS011;68632;47.512;19.104;2024-02-26T05:23:22;25.67;;;16.50;;
79204;SDS011;68632;47.512;19.104;2024-02-26T05:24:25;29.58;;;16.75;;
79204;SDS011;68632;47.512;19.104;2024-02-26T05:25:27;29.08;;;17.85;;
79204;SDS011;68632;47.512;19.104;2024-02-26T05:26:29;29.80;;;16.92;;
79204;SDS011;68632;47.512;19.104;2024-02-26T05:27:32;25.50;;;16.20;;
79204;SDS011;68632;47.512;19.104;2024-02-26T05:28:34;26.35;;;16.98;;
79204;SDS011;68632;47.512;19.104;2024-02-26T05:29:36;25.63;;;16.58;;
79204;SDS011;68632;47.512;19.104;2024-02-26T05:30:38;25.95;;;16.90;;
79204;SDS011;68632;47.512;19.104;2024-02-26T05:31:42;25.70;;;16.15;;
79204;SDS011;68632;47.512;19.104;2024-02-26T05:32:44;28.02;;;15.70;;
79204;SDS011;68632;47.512;19.104;2024-02-26T05:33:47;29.50;;;17.50;;
79204;SDS011;68632;47.512;19.104;2024-02-26T05:34:49;27.77;;;17.25;;
79204;SDS011;68632;47.512;19.104;2024-02-26T05:35:52;26.35;;;15.35;;
79204;SDS011;68632;47.512;19.104;2024-02-26T05:36:54;28.00;;;15.82;;
79204;SDS011;68632;47.512;19.104;2024-02-26T05:37:56;26.48;;;15.57;;
79204;SDS011;68632;47.512;19.104;2024-02-26T05:38:59;23.75;;;16.15;;
79204;SDS011;68632;47.512;19.104;2024-02-26T05:40:02;27.17;;;16.38;;
79204;SDS011;68632;47.512;19.104;2024-02-26T05:41:06;24.08;;;15.55;;
79204;SDS011;68632;47.512;19.104;2024-02-26T05:42:10;27.70;;;15.48;;
79204;SDS011;68632;47.512;19.104;2024-02-26T05:43:12;25.98;;;15.30;;
79204;SDS011;68632;47.512;19.104;2024-02-26T05:44:17;24.58;;;15.27;;
79204;SDS011;68632;47.512;19.104;2024-02-26T05:45:19;26.50;;;15.82;;
79204;SDS011;68632;47.512;19.104;2024-02-26T05:46:22;27.20;;;15.85;;
79204;SDS011;68632;47.512;19.104;2024-02-26T05:47:24;23.20;;;14.75;;
79204;SDS011;68632;47.512;19.104;2024-02-26T05:48:27;27.67;;;15.85;;
79204;SDS011;68632;47.512;19.104;2024-02-26T05:49:29;25.13;;;14.73;;
79204;SDS011;68632;47.512;19.104;2024-02-26T05:50:32;26.55;;;15.85;;
79204;SDS011;68632;47.512;19.104;2024-02-26T05:51:34;24.10;;;14.85;;
79204;SDS011;68632;47.512;19.104;2024-02-26T05:52:37;27.35;;;15.77;;
79204;SDS011;68632;47.512;19.104;2024-02-26T05:53:40;26.48;;;15.30;;
79204;SDS011;68632;47.512;19.104;2024-02-26T05:54:43;25.45;;;15.63;;
79204;SDS011;68632;47.512;19.104;2024-02-26T05:55:45;26.42;;;15.60;;
79204;SDS011;68632;47.512;19.104;2024-02-26T05:56:47;26.42;;;15.63;;
79204;SDS011;68632;47.512;19.104;2024-02-26T05:57:50;26.92;;;15.98;;
79204;SDS011;68632;47.512;19.104;2024-02-26T05:58:52;26.55;;;14.82;;
79204;SDS011;68632;47.512;19.104;2024-02-26T05:59:56;27.92;;;15.57;;
79204;SDS011;68632;47.512;19.104;2024-02-26T06:00:58;25.63;;;14.27;;